sensor_id;sensor_type;location;lat;lon;timestamp;P1;durP1;ratioP1;P2;durP2;ratioP2
25649;SDS011;13505;45.196;5.696;2023-08-08T04:31:03;4.22;;;1.00;;
25649;SDS011;13505;45.196;5.696;2023-08-08T04:35:53;0.98;;;0.90;;
25649;SDS011;13505;45.196;5.696;2023-08-08T04:40:44;1.20;;;0.93;;
25649;SDS011;13505;45.196;5.696;2023-08-08T04:45:34;1.10;;;1.00;;
25649;SDS011;13505;45.196;5.696;2023-08-08T04:50:24;1.65;;;1.00;;
25649;SDS011;13505;45.196;5.696;2023-08-08T04:55:15;2.58;;;1.10;;
25649;SDS011;13505;45.196;5.696;2023-08-08T05:00:05;1.57;;;1.00;;
25649;SDS011;13505;45.196;5.696;2023-08-08T05:04:58;2.85;;;1.67;;
25649;SDS011;13505;45.196;5.696;2023-08-08T05:09:50;3.33;;;1.85;;
25649;SDS011;13505;45.196;5.696;2023-08-08T05:14:40;1.90;;;1.23;;
25649;SDS011;13505;45.196;5.696;2023-08-08T05:19:31;5.27;;;1.43;;
25649;SDS011;13505;45.196;5.696;2023-08-08T05:24:21;1.53;;;1.23;;
25649;SDS011;13505;45.196;5.696;2023-08-08T05:29:11;1.95;;;1.05;;
25649;SDS011;13505;45.196;5.696;2023-08-08T05:34:02;3.43;;;0.90;;
25649;SDS011;13505;45.196;5.696;2023-08-08T05:38:52;1.60;;;1.13;;
25649;SDS011;13505;45.196;5.696;2023-08-08T05:43:42;3.33;;;0.90;;
25649;SDS011;13505;45.196;5.696;2023-08-08T05:48:33;2.72;;;1.27;;
25649;SDS011;13505;45.196;5.696;2023-08-08T05:53:23;2.33;;;1.30;;
25649;SDS011;13505;45.196;5.696;2023-08-08T05:58:13;3.00;;;1.15;;
25649;SDS011;13505;45.196;5.696;2023-08-08T06:03:04;1.93;;;1.10;;
25649;SDS011;13505;45.196;5.696;2023-08-08T06:07:54;2.80;;;1.48;;
25649;SDS011;13505;45.196;5.696;2023-08-08T06:12:45;2.85;;;1.17;;
25649;SDS011;13505;45.196;5.696;2023-08-08T06:17:35;10.57;;;1.70;;
25649;SDS011;13505;45.196;5.696;2023-08-08T06:22:26;3.30;;;1.43;;
25649;SDS011;13505;45.196;5.696;2023-08-08T06:27:16;7.80;;;1.50;;
25649;SDS011;13505;45.196;5.696;2023-08-08T06:32:07;2.00;;;1.23;;
25649;SDS011;13505;45.196;5.696;2023-08-08T06:36:57;8.88;;;1.42;;
25649;SDS011;13505;45.196;5.696;2023-08-08T06:41:48;2.93;;;1.50;;
25649;SDS011;13505;45.196;5.696;2023-08-08T06:46:38;1.95;;;1.38;;
25649;SDS011;13505;45.196;5.696;2023-08-08T06:51:29;4.90;;;2.28;;
25649;SDS011;13505;45.196;5.696;2023-08-08T06:56:19;3.67;;;2.47;;
25649;SDS011;13505;45.196;5.696;2023-08-08T07:01:09;6.43;;;2.63;;
25649;SDS011;13505;45.196;5.696;2023-08-08T07:06:00;5.70;;;2.13;;
25649;SDS011;13505;45.196;5.696;2023-08-08T07:10:50;7.90;;;3.35;;
25649;SDS011;13505;45.196;5.696;2023-08-08T07:15:41;8.17;;;3.10;;
25649;SDS011;13505;45.196;5.696;2023-08-08T07:20:31;6.22;;;3.50;;
25649;SDS011;13505;45.196;5.696;2023-08-08T07:25:21;9.83;;;3.57;;
25649;SDS011;13505;45.196;5.696;2023-08-08T07:30:12;6.17;;;3.53;;
25649;SDS011;13505;45.196;5.696;2023-08-08T07:35:03;7.95;;;3.55;;
25649;SDS011;13505;45.196;5.696;2023-08-08T07:39:55;6.85;;;3.78;;
25649;SDS011;13505;45.196;5.696;2023-08-08T07:44:46;8.07;;;4.10;;
25649;SDS011;13505;45.196;5.696;2023-08-08T07:49:36;8.70;;;4.83;;
25649;SDS011;13505;45.196;5.696;2023-08-08T07:54:26;10.47;;;5.83;;
25649;SDS011;13505;45.196;5.696;2023-08-08T07:59:17;9.07;;;5.90;;
25649;SDS011;13505;45.196;5.696;2023-08-08T08:04:07;8.23;;;5.20;;
25649;SDS011;13505;45.196;5.696;2023-08-08T08:08:57;6.77;;;4.63;;
25649;SDS011;13505;45.196;5.696;2023-08-08T08:13:48;9.57;;;4.38;;
25649;SDS011;13505;45.196;5.696;2023-08-08T08:18:38;6.97;;;4.33;;
25649;SDS011;13505;45.196;5.696;2023-08-08T08:23:29;7.20;;;4.50;;
25649;SDS011;13505;45.196;5.696;2023-08-08T08:28:21;6.85;;;3.63;;
25649;SDS011;13505;45.196;5.696;2023-08-08T08:33:12;7.30;;;3.55;;
25649;SDS011;13505;45.196;5.696;2023-08-08T08:38:02;5.30;;;3.33;;
25649;SDS011;13505;45.196;5.696;2023-08-08T08:42:53;5.78;;;3.35;;
25649;SDS011;13505;45.196;5.696;2023-08-08T08:47:44;5.20;;;3.33;;
25649;SDS011;13505;45.196;5.696;2023-08-08T08:52:36;6.70;;;3.20;;
25649;SDS011;13505;45.196;5.696;2023-08-08T08:57:27;4.50;;;3.15;;
25649;SDS011;13505;45.196;5.696;2023-08-08T09:02:18;6.70;;;2.60;;
25649;SDS011;13505;45.196;5.696;2023-08-08T09:07:09;3.47;;;2.10;;
25649;SDS011;13505;45.196;5.696;2023-08-08T09:12:01;4.25;;;2.22;;
25649;SDS011;13505;45.196;5.696;2023-08-08T09:16:53;6.05;;;2.70;;
25649;SDS011;13505;45.196;5.696;2023-08-08T09:21:44;5.80;;;2.78;;
25649;SDS011;13505;45.196;5.696;2023-08-08T09:26:34;3.97;;;2.70;;
25649;SDS011;13505;45.196;5.696;2023-08-08T09:31:25;3.85;;;2.70;;
25649;SDS011;13505;45.196;5.696;2023-08-08T09:36:15;3.15;;;2.47;;
25649;SDS011;13505;45.196;5.696;2023-08-08T09:41:06;6.60;;;2.60;;
25649;SDS011;13505;45.196;5.696;2023-08-08T09:45:56;3.72;;;2.65;;
25649;SDS011;13505;45.196;5.696;2023-08-08T09:50:46;4.90;;;2.70;;
25649;SDS011;13505;45.196;5.696;2023-08-08T09:55:38;4.03;;;2.53;;
25649;SDS011;13505;45.196;5.696;2023-08-08T10:00:29;3.20;;;2.80;;
25649;SDS011;13505;45.196;5.696;2023-08-08T10:05:21;4.32;;;2.63;;
25649;SDS011;13505;45.196;5.696;2023-08-08T10:10:11;5.95;;;2.50;;
25649;SDS011;13505;45.196;5.696;2023-08-08T10:15:02;5.55;;;2.92;;
25649;SDS011;13505;45.196;5.696;2023-08-08T10:19:54;2.97;;;2.40;;
25649;SDS011;13505;45.196;5.696;2023-08-08T10:24:46;5.47;;;3.00;;
25649;SDS011;13505;45.196;5.696;2023-08-08T10:29:38;4.85;;;2.38;;
25649;SDS011;13505;45.196;5.696;2023-08-08T10:39:30;6.10;;;2.60;;
25649;SDS011;13505;45.196;5.696;2023-08-08T10:44:22;3.00;;;2.30;;
25649;SDS011;13505;45.196;5.696;2023-08-08T10:49:13;1.88;;;1.65;;
25649;SDS011;13505;45.196;5.696;2023-08-08T10:54:15;3.38;;;1.90;;
25649;SDS011;13505;45.196;5.696;2023-08-08T10:59:15;3.45;;;2.13;;
25649;SDS011;13505;45.196;5.696;2023-08-08T11:04:07;3.90;;;1.98;;
25649;SDS011;13505;45.196;5.696;2023-08-08T11:08:58;3.00;;;1.98;;
25649;SDS011;13505;45.196;5.696;2023-08-08T11:13:50;5.43;;;1.98;;
25649;SDS011;13505;45.196;5.696;2023-08-08T11:18:41;2.00;;;1.70;;
25649;SDS011;13505;45.196;5.696;2023-08-08T11:23:33;3.45;;;1.88;;
25649;SDS011;13505;45.196;5.696;2023-08-08T11:28:27;5.88;;;1.83;;
25649;SDS011;13505;45.196;5.696;2023-08-08T11:33:18;2.83;;;1.70;;
25649;SDS011;13505;45.196;5.696;2023-08-08T11:38:08;2.17;;;1.60;;
25649;SDS011;13505;45.196;5.696;2023-08-08T11:42:59;2.97;;;1.63;;
25649;SDS011;13505;45.196;5.696;2023-08-08T11:47:54;2.97;;;1.58;;
25649;SDS011;13505;45.196;5.696;2023-08-08T11:52:46;1.65;;;1.20;;
25649;SDS011;13505;45.196;5.696;2023-08-08T11:57:37;1.80;;;1.40;;
25649;SDS011;13505;45.196;5.696;2023-08-08T12:02:28;2.13;;;1.40;;
25649;SDS011;13505;45.196;5.696;2023-08-08T12:07:19;2.33;;;1.40;;
25649;SDS011;13505;45.196;5.696;2023-08-08T12:12:09;2.50;;;1.52;;
25649;SDS011;13505;45.196;5.696;2023-08-08T12:16:59;2.43;;;1.33;;
25649;SDS011;13505;45.196;5.696;2023-08-08T12:21:51;1.77;;;1.30;;
25649;SDS011;13505;45.196;5.696;2023-08-08T12:26:41;1.83;;;1.45;;
25649;SDS011;13505;45.196;5.696;2023-08-08T12:31:31;1.83;;;1.20;;
25649;SDS011;13505;45.196;5.696;2023-08-08T12:36:22;6.63;;;1.47;;
25649;SDS011;13505;45.196;5.696;2023-08-08T12:41:12;2.92;;;1.38;;
25649;SDS011;13505;45.196;5.696;2023-08-08T12:46:03;6.18;;;1.40;;
25649;SDS011;13505;45.196;5.696;2023-08-08T12:50:54;1.77;;;1.10;;
25649;SDS011;13505;45.196;5.696;2023-08-08T12:55:44;1.80;;;1.30;;
25649;SDS011;13505;45.196;5.696;2023-08-08T13:00:34;5.90;;;1.20;;
25649;SDS011;13505;45.196;5.696;2023-08-08T13:05:25;2.13;;;1.17;;
25649;SDS011;13505;45.196;5.696;2023-08-08T13:10:15;2.30;;;1.40;;
25649;SDS011;13505;45.196;5.696;2023-08-08T13:15:06;2.10;;;1.30;;
25649;SDS011;13505;45.196;5.696;2023-08-08T13:19:57;3.40;;;1.20;;
25649;SDS011;13505;45.196;5.696;2023-08-08T13:24:47;2.20;;;1.30;;
25649;SDS011;13505;45.196;5.696;2023-08-08T13:29:38;3.63;;;1.47;;
25649;SDS011;13505;45.196;5.696;2023-08-08T13:34:28;3.90;;;1.27;;
25649;SDS011;13505;45.196;5.696;2023-08-08T13:39:18;3.20;;;1.37;;
25649;SDS011;13505;45.196;5.696;2023-08-08T13:44:09;3.17;;;1.40;;
25649;SDS011;13505;45.196;5.696;2023-08-08T13:48:59;1.47;;;1.10;;
25649;SDS011;13505;45.196;5.696;2023-08-08T13:53:49;1.23;;;1.10;;
25649;SDS011;13505;45.196;5.696;2023-08-08T13:58:40;1.52;;;0.95;;
25649;SDS011;13505;45.196;5.696;2023-08-08T14:03:30;5.07;;;1.10;;
25649;SDS011;13505;45.196;5.696;2023-08-08T14:08:21;1.70;;;1.23;;
25649;SDS011;13505;45.196;5.696;2023-08-08T14:13:11;1.30;;;1.20;;
25649;SDS011;13505;45.196;5.696;2023-08-08T14:18:01;5.32;;;1.50;;
25649;SDS011;13505;45.196;5.696;2023-08-08T14:22:52;3.22;;;1.27;;
25649;SDS011;13505;45.196;5.696;2023-08-08T14:27:42;2.13;;;1.30;;
25649;SDS011;13505;45.196;5.696;2023-08-08T14:32:32;2.17;;;1.37;;
25649;SDS011;13505;45.196;5.696;2023-08-08T14:37:23;1.90;;;1.23;;
25649;SDS011;13505;45.196;5.696;2023-08-08T14:42:13;2.05;;;1.27;;
25649;SDS011;13505;45.196;5.696;2023-08-08T14:47:04;2.28;;;1.67;;
25649;SDS011;13505;45.196;5.696;2023-08-08T14:51:55;3.33;;;1.42;;
25649;SDS011;13505;45.196;5.696;2023-08-08T14:56:45;2.60;;;1.30;;
25649;SDS011;13505;45.196;5.696;2023-08-08T15:01:35;1.20;;;1.10;;
25649;SDS011;13505;45.196;5.696;2023-08-08T15:06:26;8.85;;;1.10;;
25649;SDS011;13505;45.196;5.696;2023-08-08T15:11:16;2.25;;;1.17;;
25649;SDS011;13505;45.196;5.696;2023-08-08T15:16:07;3.85;;;1.20;;
25649;SDS011;13505;45.196;5.696;2023-08-08T15:20:58;1.30;;;1.20;;
25649;SDS011;13505;45.196;5.696;2023-08-08T15:25:48;3.10;;;1.10;;
25649;SDS011;13505;45.196;5.696;2023-08-08T15:30:39;3.40;;;1.33;;
25649;SDS011;13505;45.196;5.696;2023-08-08T15:35:29;2.87;;;1.30;;
25649;SDS011;13505;45.196;5.696;2023-08-08T15:40:21;1.48;;;1.30;;
25649;SDS011;13505;45.196;5.696;2023-08-08T15:45:12;6.25;;;2.05;;
25649;SDS011;13505;45.196;5.696;2023-08-08T15:50:03;3.25;;;1.40;;
25649;SDS011;13505;45.196;5.696;2023-08-08T15:54:54;2.28;;;1.30;;
25649;SDS011;13505;45.196;5.696;2023-08-08T15:59:44;2.37;;;1.40;;
25649;SDS011;13505;45.196;5.696;2023-08-08T16:04:35;2.53;;;1.45;;
25649;SDS011;13505;45.196;5.696;2023-08-08T16:09:26;2.63;;;1.20;;
25649;SDS011;13505;45.196;5.696;2023-08-08T16:14:16;2.35;;;1.33;;
25649;SDS011;13505;45.196;5.696;2023-08-08T16:19:07;2.72;;;1.50;;
25649;SDS011;13505;45.196;5.696;2023-08-08T16:23:57;2.83;;;1.30;;
25649;SDS011;13505;45.196;5.696;2023-08-08T16:28:47;4.32;;;1.75;;
25649;SDS011;13505;45.196;5.696;2023-08-08T16:33:38;1.40;;;1.30;;
25649;SDS011;13505;45.196;5.696;2023-08-08T16:38:28;2.87;;;1.40;;
25649;SDS011;13505;45.196;5.696;2023-08-08T16:43:18;2.27;;;1.40;;
25649;SDS011;13505;45.196;5.696;2023-08-08T16:48:09;3.13;;;1.20;;
25649;SDS011;13505;45.196;5.696;2023-08-08T16:52:59;4.53;;;1.30;;
25649;SDS011;13505;45.196;5.696;2023-08-08T16:57:49;1.85;;;1.30;;
25649;SDS011;13505;45.196;5.696;2023-08-08T17:02:40;2.00;;;1.30;;
25649;SDS011;13505;45.196;5.696;2023-08-08T17:07:30;1.93;;;1.30;;
25649;SDS011;13505;45.196;5.696;2023-08-08T17:12:20;2.20;;;1.20;;
25649;SDS011;13505;45.196;5.696;2023-08-08T17:17:11;2.97;;;1.63;;
25649;SDS011;13505;45.196;5.696;2023-08-08T17:22:01;3.03;;;1.43;;
25649;SDS011;13505;45.196;5.696;2023-08-08T17:26:51;2.20;;;1.50;;
25649;SDS011;13505;45.196;5.696;2023-08-08T17:31:42;3.03;;;1.70;;
25649;SDS011;13505;45.196;5.696;2023-08-08T17:36:34;1.77;;;1.40;;
25649;SDS011;13505;45.196;5.696;2023-08-08T17:41:24;4.60;;;1.50;;
25649;SDS011;13505;45.196;5.696;2023-08-08T17:46:15;2.30;;;1.60;;
25649;SDS011;13505;45.196;5.696;2023-08-08T17:51:05;1.87;;;1.67;;
25649;SDS011;13505;45.196;5.696;2023-08-08T17:55:57;1.63;;;1.45;;
25649;SDS011;13505;45.196;5.696;2023-08-08T18:00:47;2.63;;;1.63;;
25649;SDS011;13505;45.196;5.696;2023-08-08T18:05:38;6.10;;;3.65;;
25649;SDS011;13505;45.196;5.696;2023-08-08T18:10:29;6.22;;;3.10;;
25649;SDS011;13505;45.196;5.696;2023-08-08T18:15:22;4.43;;;3.00;;
25649;SDS011;13505;45.196;5.696;2023-08-08T18:20:12;3.20;;;2.10;;
25649;SDS011;13505;45.196;5.696;2023-08-08T18:25:03;2.73;;;1.80;;
25649;SDS011;13505;45.196;5.696;2023-08-08T18:29:53;2.33;;;1.27;;
25649;SDS011;13505;45.196;5.696;2023-08-08T18:34:44;2.05;;;1.60;;
25649;SDS011;13505;45.196;5.696;2023-08-08T18:39:34;2.67;;;1.70;;
25649;SDS011;13505;45.196;5.696;2023-08-08T18:44:25;3.00;;;1.50;;
25649;SDS011;13505;45.196;5.696;2023-08-08T18:49:15;1.93;;;1.50;;
25649;SDS011;13505;45.196;5.696;2023-08-08T18:54:06;1.97;;;1.43;;
25649;SDS011;13505;45.196;5.696;2023-08-08T18:58:58;3.53;;;1.58;;
25649;SDS011;13505;45.196;5.696;2023-08-08T19:03:48;1.60;;;1.43;;
25649;SDS011;13505;45.196;5.696;2023-08-08T19:08:39;2.45;;;1.30;;
25649;SDS011;13505;45.196;5.696;2023-08-08T19:13:29;1.83;;;1.50;;
25649;SDS011;13505;45.196;5.696;2023-08-08T19:18:19;4.53;;;1.75;;
25649;SDS011;13505;45.196;5.696;2023-08-08T19:23:10;2.80;;;1.35;;
25649;SDS011;13505;45.196;5.696;2023-08-08T19:28:01;2.40;;;1.88;;
25649;SDS011;13505;45.196;5.696;2023-08-08T19:32:52;4.30;;;1.40;;
25649;SDS011;13505;45.196;5.696;2023-08-08T19:37:42;1.63;;;1.40;;
25649;SDS011;13505;45.196;5.696;2023-08-08T19:42:32;2.67;;;1.30;;
25649;SDS011;13505;45.196;5.696;2023-08-08T19:47:23;4.17;;;1.40;;
25649;SDS011;13505;45.196;5.696;2023-08-08T19:52:13;3.13;;;1.33;;
25649;SDS011;13505;45.196;5.696;2023-08-08T19:57:03;2.90;;;1.57;;
25649;SDS011;13505;45.196;5.696;2023-08-08T20:01:54;1.90;;;1.40;;
25649;SDS011;13505;45.196;5.696;2023-08-08T20:06:44;1.67;;;1.40;;
25649;SDS011;13505;45.196;5.696;2023-08-08T20:11:34;5.70;;;1.60;;
25649;SDS011;13505;45.196;5.696;2023-08-08T20:16:27;2.63;;;1.35;;
25649;SDS011;13505;45.196;5.696;2023-08-08T20:21:17;2.03;;;1.48;;
25649;SDS011;13505;45.196;5.696;2023-08-08T20:26:07;2.90;;;1.20;;
25649;SDS011;13505;45.196;5.696;2023-08-08T20:30:58;1.73;;;1.50;;
25649;SDS011;13505;45.196;5.696;2023-08-08T20:35:49;2.13;;;1.50;;
25649;SDS011;13505;45.196;5.696;2023-08-08T20:40:39;2.95;;;1.75;;
25649;SDS011;13505;45.196;5.696;2023-08-08T20:45:30;4.35;;;1.70;;
25649;SDS011;13505;45.196;5.696;2023-08-08T20:50:20;3.80;;;1.57;;
25649;SDS011;13505;45.196;5.696;2023-08-08T20:55:10;5.53;;;1.53;;
25649;SDS011;13505;45.196;5.696;2023-08-08T21:00:02;2.13;;;1.40;;
25649;SDS011;13505;45.196;5.696;2023-08-08T21:04:53;3.15;;;1.70;;
25649;SDS011;13505;45.196;5.696;2023-08-08T21:09:43;2.70;;;1.33;;
25649;SDS011;13505;45.196;5.696;2023-08-08T21:14:33;2.85;;;2.00;;
25649;SDS011;13505;45.196;5.696;2023-08-08T21:19:25;3.83;;;2.08;;
25649;SDS011;13505;45.196;5.696;2023-08-08T21:24:16;2.15;;;1.70;;
25649;SDS011;13505;45.196;5.696;2023-08-08T21:29:06;2.80;;;1.73;;
25649;SDS011;13505;45.196;5.696;2023-08-08T21:33:57;4.32;;;1.92;;
25649;SDS011;13505;45.196;5.696;2023-08-08T21:38:48;2.63;;;1.75;;
25649;SDS011;13505;45.196;5.696;2023-08-08T21:43:38;2.22;;;1.50;;
25649;SDS011;13505;45.196;5.696;2023-08-08T21:48:31;8.55;;;1.80;;
25649;SDS011;13505;45.196;5.696;2023-08-08T21:53:21;1.70;;;1.38;;
25649;SDS011;13505;45.196;5.696;2023-08-08T21:58:11;1.60;;;1.30;;
